sensor_id;sensor_type;location;lat;lon;timestamp;temperature;humidity
73955;DHT22;62306;52.516;13.290;2023-03-23T00:02:22;12.60;85.60
73955;DHT22;62306;52.516;13.290;2023-03-23T00:04:49;12.50;86.00
73955;DHT22;62306;52.516;13.290;2023-03-23T00:07:16;12.50;86.00
73955;DHT22;62306;52.516;13.290;2023-03-23T00:09:47;12.40;86.30
73955;DHT22;62306;52.516;13.290;2023-03-23T00:12:20;12.40;86.40
73955;DHT22;62306;52.516;13.290;2023-03-23T00:14:58;12.40;86.50
73955;DHT22;62306;52.516;13.290;2023-03-23T00:17:26;12.30;87.00
73955;DHT22;62306;52.516;13.290;2023-03-23T00:19:53;12.30;87.10
73955;DHT22;62306;52.516;13.290;2023-03-23T00:22:21;12.30;87.20
73955;DHT22;62306;52.516;13.290;2023-03-23T00:24:51;12.30;87.20
73955;DHT22;62306;52.516;13.290;2023-03-23T00:27:20;12.30;87.50
73955;DHT22;62306;52.516;13.290;2023-03-23T00:29:49;12.30;87.40
73955;DHT22;62306;52.516;13.290;2023-03-23T00:32:18;12.20;87.50
73955;DHT22;62306;52.516;13.290;2023-03-23T00:34:46;12.30;87.90
73955;DHT22;62306;52.516;13.290;2023-03-23T00:37:15;12.20;88.20
73955;DHT22;62306;52.516;13.290;2023-03-23T00:39:43;12.20;88.30
73955;DHT22;62306;52.516;13.290;2023-03-23T00:42:13;12.20;88.50
73955;DHT22;62306;52.516;13.290;2023-03-23T00:44:42;12.10;88.50
73955;DHT22;62306;52.516;13.290;2023-03-23T00:47:10;12.10;88.90
73955;DHT22;62306;52.516;13.290;2023-03-23T00:49:37;12.10;89.30
73955;DHT22;62306;52.516;13.290;2023-03-23T00:52:05;12.10;89.00
73955;DHT22;62306;52.516;13.290;2023-03-23T00:54:33;12.00;89.50
73955;DHT22;62306;52.516;13.290;2023-03-23T00:57:01;12.90;90.00
73955;DHT22;62306;52.516;13.290;2023-03-23T00:59:28;12.00;89.80
73955;DHT22;62306;52.516;13.290;2023-03-23T01:01:57;11.90;90.00
73955;DHT22;62306;52.516;13.290;2023-03-23T01:04:24;12.00;90.00
73955;DHT22;62306;52.516;13.290;2023-03-23T01:06:54;11.90;90.10
73955;DHT22;62306;52.516;13.290;2023-03-23T01:09:22;11.90;90.00
73955;DHT22;62306;52.516;13.290;2023-03-23T01:11:50;11.90;90.00
73955;DHT22;62306;52.516;13.290;2023-03-23T01:14:18;11.90;90.00
73955;DHT22;62306;52.516;13.290;2023-03-23T01:16:46;11.90;90.30
73955;DHT22;62306;52.516;13.290;2023-03-23T01:19:14;11.80;90.20
73955;DHT22;62306;52.516;13.290;2023-03-23T01:21:42;11.80;90.20
73955;DHT22;62306;52.516;13.290;2023-03-23T01:24:09;11.80;90.30
73955;DHT22;62306;52.516;13.290;2023-03-23T01:26:36;11.80;90.40
73955;DHT22;62306;52.516;13.290;2023-03-23T01:29:04;11.80;90.40
73955;DHT22;62306;52.516;13.290;2023-03-23T01:31:31;11.70;90.60
73955;DHT22;62306;52.516;13.290;2023-03-23T01:33:58;11.70;90.60
73955;DHT22;62306;52.516;13.290;2023-03-23T01:36:27;11.70;90.60
73955;DHT22;62306;52.516;13.290;2023-03-23T01:38:58;11.60;90.60
73955;DHT22;62306;52.516;13.290;2023-03-23T01:41:26;11.70;90.80
73955;DHT22;62306;52.516;13.290;2023-03-23T01:43:58;11.60;90.60
73955;DHT22;62306;52.516;13.290;2023-03-23T01:46:28;11.70;90.70
73955;DHT22;62306;52.516;13.290;2023-03-23T01:48:57;11.70;90.70
73955;DHT22;62306;52.516;13.290;2023-03-23T01:51:26;11.70;90.60
73955;DHT22;62306;52.516;13.290;2023-03-23T01:53:56;11.70;90.60
73955;DHT22;62306;52.516;13.290;2023-03-23T01:56:26;11.70;90.40
73955;DHT22;62306;52.516;13.290;2023-03-23T01:58:56;11.80;90.50
73955;DHT22;62306;52.516;13.290;2023-03-23T02:01:24;11.80;90.30
73955;DHT22;62306;52.516;13.290;2023-03-23T02:03:54;11.80;90.20
73955;DHT22;62306;52.516;13.290;2023-03-23T02:06:22;11.90;90.20
73955;DHT22;62306;52.516;13.290;2023-03-23T02:08:52;11.90;90.20
73955;DHT22;62306;52.516;13.290;2023-03-23T02:11:20;11.80;90.20
73955;DHT22;62306;52.516;13.290;2023-03-23T02:13:48;11.80;90.30
73955;DHT22;62306;52.516;13.290;2023-03-23T02:16:21;11.70;90.30
73955;DHT22;62306;52.516;13.290;2023-03-23T02:18:57;11.70;90.40
73955;DHT22;62306;52.516;13.290;2023-03-23T02:25:02;11.80;90.20
73955;DHT22;62306;52.516;13.290;2023-03-23T02:27:57;11.90;90.20
73955;DHT22;62306;52.516;13.290;2023-03-23T02:30:49;11.90;90.00
73955;DHT22;62306;52.516;13.290;2023-03-23T02:33:36;11.90;90.00
73955;DHT22;62306;52.516;13.290;2023-03-23T02:36:13;11.90;90.00
73955;DHT22;62306;52.516;13.290;2023-03-23T02:38:46;12.00;89.80
73955;DHT22;62306;52.516;13.290;2023-03-23T02:41:18;12.00;89.40
73955;DHT22;62306;52.516;13.290;2023-03-23T02:43:47;12.00;90.20
73955;DHT22;62306;52.516;13.290;2023-03-23T02:46:16;12.00;90.60
73955;DHT22;62306;52.516;13.290;2023-03-23T02:48:46;12.00;91.30
73955;DHT22;62306;52.516;13.290;2023-03-23T02:51:16;12.00;91.50
73955;DHT22;62306;52.516;13.290;2023-03-23T02:53:45;12.00;91.70
73955;DHT22;62306;52.516;13.290;2023-03-23T02:56:14;12.00;92.20
73955;DHT22;62306;52.516;13.290;2023-03-23T02:58:41;12.00;92.30
73955;DHT22;62306;52.516;13.290;2023-03-23T03:04:03;11.90;92.30
73955;DHT22;62306;52.516;13.290;2023-03-23T03:06:36;11.90;92.50
73955;DHT22;62306;52.516;13.290;2023-03-23T03:09:07;11.90;92.60
73955;DHT22;62306;52.516;13.290;2023-03-23T03:11:38;11.90;92.50
73955;DHT22;62306;52.516;13.290;2023-03-23T03:14:10;11.90;92.60
73955;DHT22;62306;52.516;13.290;2023-03-23T03:16:41;11.90;92.80
73955;DHT22;62306;52.516;13.290;2023-03-23T03:19:16;11.90;92.70
73955;DHT22;62306;52.516;13.290;2023-03-23T03:21:45;11.90;92.70
73955;DHT22;62306;52.516;13.290;2023-03-23T03:24:16;11.90;92.80
73955;DHT22;62306;52.516;13.290;2023-03-23T03:26:46;11.90;92.80
73955;DHT22;62306;52.516;13.290;2023-03-23T03:29:16;11.90;92.70
73955;DHT22;62306;52.516;13.290;2023-03-23T03:31:44;11.90;92.60
73955;DHT22;62306;52.516;13.290;2023-03-23T03:34:15;11.90;92.70
73955;DHT22;62306;52.516;13.290;2023-03-23T03:36:44;12.00;92.80
73955;DHT22;62306;52.516;13.290;2023-03-23T03:39:13;12.00;92.70
73955;DHT22;62306;52.516;13.290;2023-03-23T03:41:43;12.00;93.30
73955;DHT22;62306;52.516;13.290;2023-03-23T03:44:10;12.00;93.40
73955;DHT22;62306;52.516;13.290;2023-03-23T03:46:38;12.00;93.50
73955;DHT22;62306;52.516;13.290;2023-03-23T03:49:07;12.00;93.60
73955;DHT22;62306;52.516;13.290;2023-03-23T03:51:35;12.00;94.20
73955;DHT22;62306;52.516;13.290;2023-03-23T03:54:03;12.00;94.40
73955;DHT22;62306;52.516;13.290;2023-03-23T03:56:30;12.00;94.20
73955;DHT22;62306;52.516;13.290;2023-03-23T03:59:01;12.00;94.00
73955;DHT22;62306;52.516;13.290;2023-03-23T04:01:28;12.00;93.90
73955;DHT22;62306;52.516;13.290;2023-03-23T04:03:55;12.00;93.90
73955;DHT22;62306;52.516;13.290;2023-03-23T04:06:23;12.00;94.20
73955;DHT22;62306;52.516;13.290;2023-03-23T04:08:51;12.00;94.10
73955;DHT22;62306;52.516;13.290;2023-03-23T04:11:19;12.00;94.00
73955;DHT22;62306;52.516;13.290;2023-03-23T04:13:45;12.00;93.90
73955;DHT22;62306;52.516;13.290;2023-03-23T04:16:12;12.00;93.90
73955;DHT22;62306;52.516;13.290;2023-03-23T04:18:43;12.00;93.90
73955;DHT22;62306;52.516;13.290;2023-03-23T04:21:10;11.90;93.80
73955;DHT22;62306;52.516;13.290;2023-03-23T04:23:37;12.00;93.80
73955;DHT22;62306;52.516;13.290;2023-03-23T04:26:06;12.00;93.90
73955;DHT22;62306;52.516;13.290;2023-03-23T04:28:33;11.90;93.80
73955;DHT22;62306;52.516;13.290;2023-03-23T04:31:00;12.00;93.80
73955;DHT22;62306;52.516;13.290;2023-03-23T04:33:29;12.00;94.00
73955;DHT22;62306;52.516;13.290;2023-03-23T04:36:00;11.90;94.00
73955;DHT22;62306;52.516;13.290;2023-03-23T04:38:28;11.90;94.40
73955;DHT22;62306;52.516;13.290;2023-03-23T04:40:58;11.90;94.30
73955;DHT22;62306;52.516;13.290;2023-03-23T04:43:29;11.90;94.60
73955;DHT22;62306;52.516;13.290;2023-03-23T04:45:59;11.90;94.70
73955;DHT22;62306;52.516;13.290;2023-03-23T04:48:29;11.90;94.70
73955;DHT22;62306;52.516;13.290;2023-03-23T04:51:00;11.90;94.70
73955;DHT22;62306;52.516;13.290;2023-03-23T04:53:28;11.90;94.90
73955;DHT22;62306;52.516;13.290;2023-03-23T04:55:55;11.90;95.20
73955;DHT22;62306;52.516;13.290;2023-03-23T04:58:22;11.90;95.50
73955;DHT22;62306;52.516;13.290;2023-03-23T05:00:51;12.00;95.50
73955;DHT22;62306;52.516;13.290;2023-03-23T05:03:19;11.90;96.10
73955;DHT22;62306;52.516;13.290;2023-03-23T05:05:46;11.90;96.00
73955;DHT22;62306;52.516;13.290;2023-03-23T05:08:18;11.90;96.00
73955;DHT22;62306;52.516;13.290;2023-03-23T05:10:50;11.90;96.40
73955;DHT22;62306;52.516;13.290;2023-03-23T05:13:18;11.90;96.40
73955;DHT22;62306;52.516;13.290;2023-03-23T05:15:46;11.80;96.50
73955;DHT22;62306;52.516;13.290;2023-03-23T05:18:14;11.80;96.80
73955;DHT22;62306;52.516;13.290;2023-03-23T05:20:42;11.80;97.00
73955;DHT22;62306;52.516;13.290;2023-03-23T05:23:09;11.80;97.30
73955;DHT22;62306;52.516;13.290;2023-03-23T05:25:37;11.80;97.20
73955;DHT22;62306;52.516;13.290;2023-03-23T05:28:06;11.80;97.60
73955;DHT22;62306;52.516;13.290;2023-03-23T05:30:33;11.80;97.70
73955;DHT22;62306;52.516;13.290;2023-03-23T05:33:00;11.80;97.70
73955;DHT22;62306;52.516;13.290;2023-03-23T05:35:30;11.80;98.10
73955;DHT22;62306;52.516;13.290;2023-03-23T05:37:57;11.80;98.20
73955;DHT22;62306;52.516;13.290;2023-03-23T05:40:25;11.70;98.50
73955;DHT22;62306;52.516;13.290;2023-03-23T05:42:53;11.80;98.50
73955;DHT22;62306;52.516;13.290;2023-03-23T05:45:21;11.80;98.40
73955;DHT22;62306;52.516;13.290;2023-03-23T05:47:49;11.80;98.40
73955;DHT22;62306;52.516;13.290;2023-03-23T05:50:17;11.80;98.70
73955;DHT22;62306;52.516;13.290;2023-03-23T05:52:45;11.80;98.70
73955;DHT22;62306;52.516;13.290;2023-03-23T05:55:12;11.80;98.90
73955;DHT22;62306;52.516;13.290;2023-03-23T05:57:40;11.80;99.10
73955;DHT22;62306;52.516;13.290;2023-03-23T06:00:08;11.80;99.30
73955;DHT22;62306;52.516;13.290;2023-03-23T06:02:46;11.80;99.20
73955;DHT22;62306;52.516;13.290;2023-03-23T06:05:14;11.80;99.40
73955;DHT22;62306;52.516;13.290;2023-03-23T06:07:41;11.80;99.40
73955;DHT22;62306;52.516;13.290;2023-03-23T06:10:10;11.80;99.50
73955;DHT22;62306;52.516;13.290;2023-03-23T06:12:38;11.70;99.90
73955;DHT22;62306;52.516;13.290;2023-03-23T06:15:07;11.70;99.90
73955;DHT22;62306;52.516;13.290;2023-03-23T06:17:35;11.70;99.90
73955;DHT22;62306;52.516;13.290;2023-03-23T06:20:03;11.70;99.90
73955;DHT22;62306;52.516;13.290;2023-03-23T06:22:34;11.70;99.90
73955;DHT22;62306;52.516;13.290;2023-03-23T06:25:01;11.70;99.90
73955;DHT22;62306;52.516;13.290;2023-03-23T06:27:30;11.70;99.90
73955;DHT22;62306;52.516;13.290;2023-03-23T06:29:57;11.70;99.90
73955;DHT22;62306;52.516;13.290;2023-03-23T06:32:25;11.70;99.90
73955;DHT22;62306;52.516;13.290;2023-03-23T06:34:54;11.70;99.90
73955;DHT22;62306;52.516;13.290;2023-03-23T06:37:22;11.70;99.90
73955;DHT22;62306;52.516;13.290;2023-03-23T06:39:50;11.70;99.90
73955;DHT22;62306;52.516;13.290;2023-03-23T06:42:17;11.70;99.90
73955;DHT22;62306;52.516;13.290;2023-03-23T06:44:46;11.70;99.90
73955;DHT22;62306;52.516;13.290;2023-03-23T06:47:13;11.70;99.90
73955;DHT22;62306;52.516;13.290;2023-03-23T06:49:39;11.70;99.90
73955;DHT22;62306;52.516;13.290;2023-03-23T06:52:07;11.80;99.90
73955;DHT22;62306;52.516;13.290;2023-03-23T06:54:34;11.80;99.90
73955;DHT22;62306;52.516;13.290;2023-03-23T06:57:01;11.90;99.90
73955;DHT22;62306;52.516;13.290;2023-03-23T06:59:28;11.90;99.90
73955;DHT22;62306;52.516;13.290;2023-03-23T07:01:56;11.90;99.90
73955;DHT22;62306;52.516;13.290;2023-03-23T07:04:24;11.90;99.90
73955;DHT22;62306;52.516;13.290;2023-03-23T07:06:50;11.90;99.90
73955;DHT22;62306;52.516;13.290;2023-03-23T07:09:17;11.90;99.90
73955;DHT22;62306;52.516;13.290;2023-03-23T07:11:44;11.90;99.90
73955;DHT22;62306;52.516;13.290;2023-03-23T07:14:13;11.90;99.90
73955;DHT22;62306;52.516;13.290;2023-03-23T07:16:40;11.80;99.90
73955;DHT22;62306;52.516;13.290;2023-03-23T07:19:09;11.80;99.90
73955;DHT22;62306;52.516;13.290;2023-03-23T07:21:36;11.80;99.90
73955;DHT22;62306;52.516;13.290;2023-03-23T07:24:04;11.80;99.90
73955;DHT22;62306;52.516;13.290;2023-03-23T07:26:31;11.90;99.90
73955;DHT22;62306;52.516;13.290;2023-03-23T07:28:58;12.00;99.90
73955;DHT22;62306;52.516;13.290;2023-03-23T07:31:25;12.00;99.90
73955;DHT22;62306;52.516;13.290;2023-03-23T07:33:52;12.10;99.90
73955;DHT22;62306;52.516;13.290;2023-03-23T07:36:21;12.00;99.90
73955;DHT22;62306;52.516;13.290;2023-03-23T07:38:48;12.10;99.90
73955;DHT22;62306;52.516;13.290;2023-03-23T07:41:15;12.10;99.90
73955;DHT22;62306;52.516;13.290;2023-03-23T07:43:43;12.10;99.90
73955;DHT22;62306;52.516;13.290;2023-03-23T07:46:10;12.10;99.90
73955;DHT22;62306;52.516;13.290;2023-03-23T07:48:37;12.10;99.90
73955;DHT22;62306;52.516;13.290;2023-03-23T07:51:05;12.10;99.90
73955;DHT22;62306;52.516;13.290;2023-03-23T07:53:34;12.10;99.90
73955;DHT22;62306;52.516;13.290;2023-03-23T07:56:01;12.10;99.90
73955;DHT22;62306;52.516;13.290;2023-03-23T07:58:28;12.10;99.90
73955;DHT22;62306;52.516;13.290;2023-03-23T08:00:55;12.20;99.90
73955;DHT22;62306;52.516;13.290;2023-03-23T08:03:23;12.20;99.90
73955;DHT22;62306;52.516;13.290;2023-03-23T08:05:50;12.30;99.90
73955;DHT22;62306;52.516;13.290;2023-03-23T08:08:17;12.40;99.90
73955;DHT22;62306;52.516;13.290;2023-03-23T08:10:45;12.40;99.90
73955;DHT22;62306;52.516;13.290;2023-03-23T08:13:12;12.40;99.90
73955;DHT22;62306;52.516;13.290;2023-03-23T08:15:39;12.40;99.90
73955;DHT22;62306;52.516;13.290;2023-03-23T08:18:07;12.40;99.90
73955;DHT22;62306;52.516;13.290;2023-03-23T08:20:35;12.40;99.90
73955;DHT22;62306;52.516;13.290;2023-03-23T08:23:02;12.50;99.90
73955;DHT22;62306;52.516;13.290;2023-03-23T08:25:30;12.60;99.90
73955;DHT22;62306;52.516;13.290;2023-03-23T08:27:59;12.70;99.90
73955;DHT22;62306;52.516;13.290;2023-03-23T08:30:28;12.60;99.90
73955;DHT22;62306;52.516;13.290;2023-03-23T08:32:56;12.60;99.90
73955;DHT22;62306;52.516;13.290;2023-03-23T08:35:24;12.50;99.90
73955;DHT22;62306;52.516;13.290;2023-03-23T08:37:51;12.40;99.90
73955;DHT22;62306;52.516;13.290;2023-03-23T08:40:20;12.30;99.90
73955;DHT22;62306;52.516;13.290;2023-03-23T08:42:49;12.50;99.90
73955;DHT22;62306;52.516;13.290;2023-03-23T08:45:19;12.60;99.90
73955;DHT22;62306;52.516;13.290;2023-03-23T08:47:47;12.80;99.90
73955;DHT22;62306;52.516;13.290;2023-03-23T08:50:19;13.00;99.80
73955;DHT22;62306;52.516;13.290;2023-03-23T08:52:47;13.10;99.70
73955;DHT22;62306;52.516;13.290;2023-03-23T08:55:15;13.00;99.70
73955;DHT22;62306;52.516;13.290;2023-03-23T08:57:42;13.00;99.50
73955;DHT22;62306;52.516;13.290;2023-03-23T09:00:13;13.10;99.30
73955;DHT22;62306;52.516;13.290;2023-03-23T09:02:44;13.10;99.60
73955;DHT22;62306;52.516;13.290;2023-03-23T09:05:11;13.10;99.40
73955;DHT22;62306;52.516;13.290;2023-03-23T09:07:39;13.30;99.20
73955;DHT22;62306;52.516;13.290;2023-03-23T09:10:08;13.50;98.80
73955;DHT22;62306;52.516;13.290;2023-03-23T09:12:36;13.70;98.10
73955;DHT22;62306;52.516;13.290;2023-03-23T09:15:04;13.70;98.00
73955;DHT22;62306;52.516;13.290;2023-03-23T09:17:35;13.60;98.00
73955;DHT22;62306;52.516;13.290;2023-03-23T09:20:06;13.50;98.30
73955;DHT22;62306;52.516;13.290;2023-03-23T09:22:37;13.50;98.20
73955;DHT22;62306;52.516;13.290;2023-03-23T09:25:06;13.50;98.40
73955;DHT22;62306;52.516;13.290;2023-03-23T09:27:33;13.60;98.20
73955;DHT22;62306;52.516;13.290;2023-03-23T09:30:03;13.70;98.20
73955;DHT22;62306;52.516;13.290;2023-03-23T09:32:32;13.80;98.10
73955;DHT22;62306;52.516;13.290;2023-03-23T09:35:00;14.00;97.70
73955;DHT22;62306;52.516;13.290;2023-03-23T09:37:29;14.30;97.40
73955;DHT22;62306;52.516;13.290;2023-03-23T09:39:56;14.50;96.40
73955;DHT22;62306;52.516;13.290;2023-03-23T09:42:31;14.70;95.60
73955;DHT22;62306;52.516;13.290;2023-03-23T09:45:09;14.90;95.80
73955;DHT22;62306;52.516;13.290;2023-03-23T09:47:46;14.90;95.50
73955;DHT22;62306;52.516;13.290;2023-03-23T09:50:18;14.90;94.80
73955;DHT22;62306;52.516;13.290;2023-03-23T09:52:50;15.00;94.10
73955;DHT22;62306;52.516;13.290;2023-03-23T09:55:19;15.00;94.30
73955;DHT22;62306;52.516;13.290;2023-03-23T09:57:51;15.20;94.20
73955;DHT22;62306;52.516;13.290;2023-03-23T10:00:23;15.40;93.70
73955;DHT22;62306;52.516;13.290;2023-03-23T10:02:59;15.60;93.30
73955;DHT22;62306;52.516;13.290;2023-03-23T10:05:32;15.60;92.90
73955;DHT22;62306;52.516;13.290;2023-03-23T10:08:05;15.60;92.70
73955;DHT22;62306;52.516;13.290;2023-03-23T10:10:43;15.60;92.50
73955;DHT22;62306;52.516;13.290;2023-03-23T10:13:18;15.50;92.60
73955;DHT22;62306;52.516;13.290;2023-03-23T10:15:47;15.50;92.40
73955;DHT22;62306;52.516;13.290;2023-03-23T10:18:19;15.50;92.40
73955;DHT22;62306;52.516;13.290;2023-03-23T10:20:50;15.50;92.00
73955;DHT22;62306;52.516;13.290;2023-03-23T10:23:45;15.40;92.20
73955;DHT22;62306;52.516;13.290;2023-03-23T10:26:22;15.40;92.50
73955;DHT22;62306;52.516;13.290;2023-03-23T10:28:54;15.50;92.40
73955;DHT22;62306;52.516;13.290;2023-03-23T10:31:26;15.50;91.70
73955;DHT22;62306;52.516;13.290;2023-03-23T10:33:56;15.70;91.40
73955;DHT22;62306;52.516;13.290;2023-03-23T10:36:28;15.90;90.70
73955;DHT22;62306;52.516;13.290;2023-03-23T10:39:02;15.90;90.50
73955;DHT22;62306;52.516;13.290;2023-03-23T10:41:32;16.00;89.90
73955;DHT22;62306;52.516;13.290;2023-03-23T10:43:59;16.00;89.30
73955;DHT22;62306;52.516;13.290;2023-03-23T10:46:32;16.00;89.50
73955;DHT22;62306;52.516;13.290;2023-03-23T10:49:02;15.90;89.40
73955;DHT22;62306;52.516;13.290;2023-03-23T10:51:34;15.80;89.10
73955;DHT22;62306;52.516;13.290;2023-03-23T10:54:04;15.80;89.50
73955;DHT22;62306;52.516;13.290;2023-03-23T10:56:36;15.90;89.00
73955;DHT22;62306;52.516;13.290;2023-03-23T10:59:15;15.90;88.90
73955;DHT22;62306;52.516;13.290;2023-03-23T11:01:44;16.00;89.20
73955;DHT22;62306;52.516;13.290;2023-03-23T11:04:14;15.80;88.90
73955;DHT22;62306;52.516;13.290;2023-03-23T11:06:45;15.80;88.80
73955;DHT22;62306;52.516;13.290;2023-03-23T11:09:15;15.80;89.60
73955;DHT22;62306;52.516;13.290;2023-03-23T11:11:47;15.80;88.60
73955;DHT22;62306;52.516;13.290;2023-03-23T11:14:17;15.90;87.80
73955;DHT22;62306;52.516;13.290;2023-03-23T11:16:49;15.80;88.00
73955;DHT22;62306;52.516;13.290;2023-03-23T11:19:22;15.80;88.40
73955;DHT22;62306;52.516;13.290;2023-03-23T11:21:51;15.80;87.40
73955;DHT22;62306;52.516;13.290;2023-03-23T11:24:22;15.80;88.00
73955;DHT22;62306;52.516;13.290;2023-03-23T11:26:50;15.70;87.90
73955;DHT22;62306;52.516;13.290;2023-03-23T11:29:19;15.80;86.70
73955;DHT22;62306;52.516;13.290;2023-03-23T11:31:50;16.00;86.00
73955;DHT22;62306;52.516;13.290;2023-03-23T11:34:20;16.20;85.90
73955;DHT22;62306;52.516;13.290;2023-03-23T11:36:49;16.20;86.30
73955;DHT22;62306;52.516;13.290;2023-03-23T11:39:24;16.30;85.30
73955;DHT22;62306;52.516;13.290;2023-03-23T11:41:52;16.40;84.20
73955;DHT22;62306;52.516;13.290;2023-03-23T11:44:21;16.50;83.20
73955;DHT22;62306;52.516;13.290;2023-03-23T11:46:55;16.60;83.60
73955;DHT22;62306;52.516;13.290;2023-03-23T11:49:32;16.60;82.90
73955;DHT22;62306;52.516;13.290;2023-03-23T11:52:11;16.80;82.10
73955;DHT22;62306;52.516;13.290;2023-03-23T11:54:46;16.70;82.70
73955;DHT22;62306;52.516;13.290;2023-03-23T11:57:14;16.80;82.00
73955;DHT22;62306;52.516;13.290;2023-03-23T11:59:42;17.00;81.00
73955;DHT22;62306;52.516;13.290;2023-03-23T12:02:31;16.90;80.80
73955;DHT22;62306;52.516;13.290;2023-03-23T12:08:03;17.00;79.60
73955;DHT22;62306;52.516;13.290;2023-03-23T12:10:41;16.90;79.40
73955;DHT22;62306;52.516;13.290;2023-03-23T12:13:33;16.90;79.50
73955;DHT22;62306;52.516;13.290;2023-03-23T12:16:11;16.90;79.00
73955;DHT22;62306;52.516;13.290;2023-03-23T12:18:50;16.60;79.40
73955;DHT22;62306;52.516;13.290;2023-03-23T12:21:24;16.60;80.80
73955;DHT22;62306;52.516;13.290;2023-03-23T12:23:58;16.40;80.50
73955;DHT22;62306;52.516;13.290;2023-03-23T12:26:27;16.40;80.70
73955;DHT22;62306;52.516;13.290;2023-03-23T12:29:15;16.30;81.60
73955;DHT22;62306;52.516;13.290;2023-03-23T12:31:51;16.50;80.90
73955;DHT22;62306;52.516;13.290;2023-03-23T12:34:30;16.50;81.30
73955;DHT22;62306;52.516;13.290;2023-03-23T12:37:17;16.60;80.90
73955;DHT22;62306;52.516;13.290;2023-03-23T12:40:10;16.50;80.40
73955;DHT22;62306;52.516;13.290;2023-03-23T12:42:51;16.60;80.70
73955;DHT22;62306;52.516;13.290;2023-03-23T12:45:25;16.70;79.80
73955;DHT22;62306;52.516;13.290;2023-03-23T12:47:58;16.60;80.30
73955;DHT22;62306;52.516;13.290;2023-03-23T12:50:30;16.60;79.30
73955;DHT22;62306;52.516;13.290;2023-03-23T12:53:03;16.60;79.20
73955;DHT22;62306;52.516;13.290;2023-03-23T12:55:36;16.70;78.60
73955;DHT22;62306;52.516;13.290;2023-03-23T12:58:12;16.90;78.40
73955;DHT22;62306;52.516;13.290;2023-03-23T13:00:55;17.30;76.60
73955;DHT22;62306;52.516;13.290;2023-03-23T13:03:27;17.40;75.90
73955;DHT22;62306;52.516;13.290;2023-03-23T13:06:00;17.70;74.00
73955;DHT22;62306;52.516;13.290;2023-03-23T13:08:32;17.90;73.50
73955;DHT22;62306;52.516;13.290;2023-03-23T13:11:03;17.90;72.80
73955;DHT22;62306;52.516;13.290;2023-03-23T13:13:45;17.80;72.50
73955;DHT22;62306;52.516;13.290;2023-03-23T13:16:20;17.90;72.30
73955;DHT22;62306;52.516;13.290;2023-03-23T13:18:58;18.00;72.20
73955;DHT22;62306;52.516;13.290;2023-03-23T13:21:30;18.00;71.90
73955;DHT22;62306;52.516;13.290;2023-03-23T13:24:00;18.00;71.10
73955;DHT22;62306;52.516;13.290;2023-03-23T13:26:29;17.90;70.30
73955;DHT22;62306;52.516;13.290;2023-03-23T13:28:59;17.60;71.00
73955;DHT22;62306;52.516;13.290;2023-03-23T13:31:29;17.60;72.40
73955;DHT22;62306;52.516;13.290;2023-03-23T13:34:01;17.80;70.60
73955;DHT22;62306;52.516;13.290;2023-03-23T13:36:31;17.80;70.20
73955;DHT22;62306;52.516;13.290;2023-03-23T13:39:00;18.00;69.30
73955;DHT22;62306;52.516;13.290;2023-03-23T13:41:28;18.00;68.50
73955;DHT22;62306;52.516;13.290;2023-03-23T13:44:16;18.10;67.90
73955;DHT22;62306;52.516;13.290;2023-03-23T13:46:55;18.10;68.10
73955;DHT22;62306;52.516;13.290;2023-03-23T13:49:22;17.90;68.30
73955;DHT22;62306;52.516;13.290;2023-03-23T13:52:06;18.00;67.40
73955;DHT22;62306;52.516;13.290;2023-03-23T13:54:41;18.00;67.80
73955;DHT22;62306;52.516;13.290;2023-03-23T13:57:25;17.90;67.30
73955;DHT22;62306;52.516;13.290;2023-03-23T14:00:24;17.70;68.20
73955;DHT22;62306;52.516;13.290;2023-03-23T14:02:59;17.60;68.20
73955;DHT22;62306;52.516;13.290;2023-03-23T14:05:34;17.80;67.40
73955;DHT22;62306;52.516;13.290;2023-03-23T14:08:09;18.10;66.30
73955;DHT22;62306;52.516;13.290;2023-03-23T14:10:38;18.10;64.80
73955;DHT22;62306;52.516;13.290;2023-03-23T14:13:15;18.00;65.10
73955;DHT22;62306;52.516;13.290;2023-03-23T14:15:54;17.80;65.60
73955;DHT22;62306;52.516;13.290;2023-03-23T14:18:25;17.80;65.80
73955;DHT22;62306;52.516;13.290;2023-03-23T14:20:53;17.70;66.00
73955;DHT22;62306;52.516;13.290;2023-03-23T14:23:20;17.80;66.00
73955;DHT22;62306;52.516;13.290;2023-03-23T14:25:55;17.80;66.10
73955;DHT22;62306;52.516;13.290;2023-03-23T14:28:26;18.10;65.40
73955;DHT22;62306;52.516;13.290;2023-03-23T14:30:55;18.30;64.50
73955;DHT22;62306;52.516;13.290;2023-03-23T14:33:25;18.00;64.50
73955;DHT22;62306;52.516;13.290;2023-03-23T14:35:52;17.80;64.50
73955;DHT22;62306;52.516;13.290;2023-03-23T14:38:21;17.80;64.70
73955;DHT22;62306;52.516;13.290;2023-03-23T14:40:52;17.60;64.20
73955;DHT22;62306;52.516;13.290;2023-03-23T14:43:21;17.40;65.30
73955;DHT22;62306;52.516;13.290;2023-03-23T14:45:53;17.10;66.50
73955;DHT22;62306;52.516;13.290;2023-03-23T14:48:22;17.10;66.90
73955;DHT22;62306;52.516;13.290;2023-03-23T14:50:50;17.10;66.50
73955;DHT22;62306;52.516;13.290;2023-03-23T14:53:21;17.10;66.70
73955;DHT22;62306;52.516;13.290;2023-03-23T14:55:49;17.10;67.30
73955;DHT22;62306;52.516;13.290;2023-03-23T14:58:19;17.40;66.60
73955;DHT22;62306;52.516;13.290;2023-03-23T15:00:49;17.70;66.10
73955;DHT22;62306;52.516;13.290;2023-03-23T15:03:18;17.90;66.30
73955;DHT22;62306;52.516;13.290;2023-03-23T15:05:49;18.00;64.90
73955;DHT22;62306;52.516;13.290;2023-03-23T15:08:20;17.90;65.50
73955;DHT22;62306;52.516;13.290;2023-03-23T15:10:54;17.90;65.70
73955;DHT22;62306;52.516;13.290;2023-03-23T15:13:21;17.70;66.40
73955;DHT22;62306;52.516;13.290;2023-03-23T15:15:48;17.70;66.60
73955;DHT22;62306;52.516;13.290;2023-03-23T15:18:34;17.50;67.60
73955;DHT22;62306;52.516;13.290;2023-03-23T15:21:18;17.40;67.90
73955;DHT22;62306;52.516;13.290;2023-03-23T15:23:46;17.20;68.20
73955;DHT22;62306;52.516;13.290;2023-03-23T15:26:25;17.20;68.00
73955;DHT22;62306;52.516;13.290;2023-03-23T15:29:01;17.20;68.80
73955;DHT22;62306;52.516;13.290;2023-03-23T15:31:30;17.10;68.40
73955;DHT22;62306;52.516;13.290;2023-03-23T15:34:02;17.10;69.10
73955;DHT22;62306;52.516;13.290;2023-03-23T15:36:34;16.90;68.90
73955;DHT22;62306;52.516;13.290;2023-03-23T15:39:02;16.90;68.40
73955;DHT22;62306;52.516;13.290;2023-03-23T15:41:31;16.90;67.60
73955;DHT22;62306;52.516;13.290;2023-03-23T15:44:10;16.90;67.50
73955;DHT22;62306;52.516;13.290;2023-03-23T15:46:47;16.70;67.00